Time;durP1;ratioP1;P1;durP2;ratioP2;P2;SDS_P1;SDS_P2;PMS_P1;PMS_P2;Temp;Humidity;BMP_temperature;BMP_pressure;BME280_temperature;BME280_humidity;BME280_pressure;Samples;Min_cycle;Max_cycle;Signal;HPM_P1;HPM_P2
2023/08/24 00:00:15;;;;;;;;;;;19.70;99.90;;;;;;5031523;28;19980;-85
2023/08/24 00:02:45;;;;;;;;;;;19.60;99.90;;;;;;5043273;28;20390;-83
2023/08/24 00:05:12;;;;;;;;;;;19.70;99.90;;;;;;5055923;23;19921;-70
2023/08/24 00:07:39;;;;;;;;;;;19.60;99.90;;;;;;5043339;28;19921;-71
2023/08/24 00:10:07;;;;;;;;;;;19.60;99.90;;;;;;5043529;28;19956;-70
2023/08/24 00:12:34;;;;;;;;;;;19.60;99.90;;;;;;5043403;28;19921;-70
2023/08/24 00:15:00;;;;;;;;;;;19.50;99.90;;;;;;5043200;28;19989;-71
2023/08/24 00:17:27;;;;;;;;;;;19.50;99.90;;;;;;5043360;28;19921;-71
2023/08/24 00:19:55;;;;;;;;;;;19.50;99.90;;;;;;5043200;28;19921;-72
2023/08/24 00:22:22;;;;;;;;;;;19.40;99.90;;;;;;5043323;28;19963;-71
2023/08/24 00:24:48;;;;;;;;;;;19.40;99.90;;;;;;5043349;28;20180;-70
2023/08/24 00:27:15;;;;;;;;;;;19.30;99.90;;;;;;5043392;28;19960;-71
2023/08/24 00:29:41;;;;;;;;;;;19.30;99.90;;;;;;5043328;28;20182;-71
2023/08/24 00:32:08;;;;;;;;;;;19.30;99.90;;;;;;5043358;28;19921;-71
2023/08/24 00:34:35;;;;;;;;;;;19.20;99.90;;;;;;5042987;28;19927;-71
2023/08/24 00:37:03;;;;;;;;;;;19.20;99.90;;;;;;5043389;28;19921;-71
2023/08/24 00:39:30;;;;;;;;;;;19.20;99.90;;;;;;5043044;28;20180;-71
2023/08/24 00:41:56;;;;;;;;;;;19.20;99.90;;;;;;5042946;28;20224;-71
2023/08/24 00:44:23;;;;;;;;;;;19.10;99.90;;;;;;5043101;28;19921;-70
2023/08/24 00:46:49;;;;;;;;;;;19.00;99.90;;;;;;5043173;28;19988;-71
2023/08/24 00:49:16;;;;;;;;;;;19.00;99.90;;;;;;5042660;28;20259;-71
2023/08/24 00:51:43;;;;;;;;;;;18.90;99.90;;;;;;5044132;28;20303;-70
2023/08/24 00:54:11;;;;;;;;;;;18.90;99.90;;;;;;5036900;28;19921;-71
2023/08/24 00:56:38;;;;;;;;;;;18.80;99.90;;;;;;5042711;28;19921;-71
2023/08/24 00:59:04;;;;;;;;;;;18.80;99.90;;;;;;5046840;28;19983;-71
2023/08/24 01:01:31;;;;;;;;;;;18.80;99.90;;;;;;5046993;28;19953;-71
2023/08/24 01:03:58;;;;;;;;;;;18.80;99.90;;;;;;5046069;28;19963;-71
2023/08/24 01:06:25;;;;;;;;;;;18.80;99.90;;;;;;5046521;28;19975;-71
2023/08/24 01:08:54;;;;;;;;;;;18.80;99.90;;;;;;5046615;28;20116;-71
2023/08/24 01:11:28;;;;;;;;;;;18.80;99.90;;;;;;5046693;28;20201;-71
2023/08/24 01:14:01;;;;;;;;;;;18.70;99.90;;;;;;5046746;28;19952;-71
2023/08/24 01:16:28;;;;;;;;;;;18.70;99.90;;;;;;5046759;28;19921;-71
2023/08/24 01:18:56;;;;;;;;;;;18.70;99.90;;;;;;5046460;28;19921;-71
2023/08/24 01:21:23;;;;;;;;;;;18.70;99.90;;;;;;5046399;28;19997;-71
2023/08/24 01:23:54;;;;;;;;;;;18.60;99.90;;;;;;5046428;28;19957;-71
2023/08/24 01:26:23;;;;;;;;;;;18.60;99.90;;;;;;5046484;28;20188;-71
2023/08/24 01:28:50;;;;;;;;;;;18.60;99.90;;;;;;5046007;28;19921;-71
2023/08/24 01:31:17;;;;;;;;;;;18.50;99.90;;;;;;5046259;28;19983;-71
2023/08/24 01:33:44;;;;;;;;;;;18.50;99.90;;;;;;5046141;28;19922;-70
2023/08/24 01:36:12;;;;;;;;;;;18.50;99.90;;;;;;5045933;28;20251;-71
2023/08/24 01:38:39;;;;;;;;;;;18.40;99.90;;;;;;5045582;28;19992;-71
2023/08/24 01:41:10;;;;;;;;;;;18.40;99.90;;;;;;5026270;28;19957;-71
2023/08/24 01:43:39;;;;;;;;;;;18.40;99.90;;;;;;5026902;28;20077;-71
2023/08/24 01:46:07;;;;;;;;;;;18.40;99.90;;;;;;5046016;28;20152;-71
2023/08/24 01:48:34;;;;;;;;;;;18.40;99.90;;;;;;5045798;28;19963;-71
2023/08/24 01:51:01;;;;;;;;;;;18.40;99.90;;;;;;5045908;28;19959;-71
2023/08/24 01:53:29;;;;;;;;;;;18.40;99.90;;;;;;5045692;28;19956;-71
2023/08/24 01:55:55;;;;;;;;;;;18.30;99.90;;;;;;5045844;28;19964;-71
2023/08/24 01:58:22;;;;;;;;;;;18.20;99.90;;;;;;5045393;28;19984;-71
2023/08/24 02:00:50;;;;;;;;;;;18.20;99.90;;;;;;5045800;28;19940;-70
2023/08/24 02:03:17;;;;;;;;;;;18.20;99.90;;;;;;5045133;28;20003;-70
2023/08/24 02:05:43;;;;;;;;;;;18.10;99.90;;;;;;5045396;28;19921;-71
2023/08/24 02:08:10;;;;;;;;;;;18.10;99.90;;;;;;5045594;28;19984;-71
2023/08/24 02:10:36;;;;;;;;;;;18.00;99.90;;;;;;5045385;28;19925;-71
2023/08/24 02:13:03;;;;;;;;;;;18.00;99.90;;;;;;5045626;28;19921;-70
2023/08/24 02:15:30;;;;;;;;;;;18.00;99.90;;;;;;5045658;28;19988;-70
2023/08/24 02:17:58;;;;;;;;;;;18.00;99.90;;;;;;5045351;28;20001;-71
2023/08/24 02:20:24;;;;;;;;;;;18.00;99.90;;;;;;5045469;28;19967;-71
2023/08/24 02:22:51;;;;;;;;;;;18.00;99.90;;;;;;5045380;28;19984;-71
2023/08/24 02:25:18;;;;;;;;;;;18.00;99.90;;;;;;5045030;28;20187;-71
2023/08/24 02:27:44;;;;;;;;;;;18.00;99.90;;;;;;5044736;28;20262;-71
2023/08/24 02:30:12;;;;;;;;;;;17.90;99.90;;;;;;5045077;28;19921;-71
2023/08/24 02:32:38;;;;;;;;;;;17.90;99.90;;;;;;5044784;28;19921;-71
2023/08/24 02:35:07;;;;;;;;;;;17.90;99.90;;;;;;5045040;28;19980;-71
2023/08/24 02:37:34;;;;;;;;;;;17.90;99.90;;;;;;5044879;28;20145;-70
2023/08/24 02:40:01;;;;;;;;;;;17.90;99.90;;;;;;5045085;28;19983;-71
2023/08/24 02:42:27;;;;;;;;;;;17.90;99.90;;;;;;5044827;28;19943;-71
2023/08/24 02:44:54;;;;;;;;;;;17.90;99.90;;;;;;5044761;28;19960;-70
2023/08/24 02:47:20;;;;;;;;;;;17.80;99.90;;;;;;5044859;28;20031;-71
2023/08/24 02:49:47;;;;;;;;;;;17.80;99.90;;;;;;5044533;28;19956;-71
2023/08/24 02:52:15;;;;;;;;;;;17.70;99.90;;;;;;5044675;28;19921;-71
2023/08/24 02:54:42;;;;;;;;;;;17.60;99.90;;;;;;5044817;28;19928;-71
2023/08/24 02:57:08;;;;;;;;;;;17.60;99.90;;;;;;5025055;28;19922;-71
2023/08/24 02:59:35;;;;;;;;;;;17.50;99.90;;;;;;5024627;28;19952;-71
2023/08/24 03:02:02;;;;;;;;;;;17.40;99.90;;;;;;5024557;28;19997;-71
2023/08/24 03:04:29;;;;;;;;;;;17.30;99.90;;;;;;5024728;28;19980;-71
2023/08/24 03:06:56;;;;;;;;;;;17.30;99.90;;;;;;5024913;28;19921;-71
2023/08/24 03:09:24;;;;;;;;;;;17.30;99.90;;;;;;5024699;28;19985;-71
2023/08/24 03:11:50;;;;;;;;;;;17.30;99.90;;;;;;5024602;28;19927;-71
2023/08/24 03:14:18;;;;;;;;;;;17.30;99.90;;;;;;5024138;28;19921;-71
2023/08/24 03:16:45;;;;;;;;;;;17.30;99.90;;;;;;5027674;28;20235;-70
2023/08/24 03:19:14;;;;;;;;;;;17.30;99.90;;;;;;5044017;28;20144;-71
2023/08/24 03:21:40;;;;;;;;;;;17.30;99.90;;;;;;5024218;28;19921;-71
2023/08/24 03:24:07;;;;;;;;;;;17.30;99.90;;;;;;5024445;28;19980;-71
2023/08/24 03:26:35;;;;;;;;;;;17.30;99.90;;;;;;5024786;28;19921;-71
2023/08/24 03:29:02;;;;;;;;;;;17.40;99.90;;;;;;5037309;28;19980;-71
2023/08/24 03:31:28;;;;;;;;;;;17.40;99.90;;;;;;5044357;28;19929;-71
2023/08/24 03:33:55;;;;;;;;;;;17.30;99.90;;;;;;5044230;28;19991;-70
2023/08/24 03:36:22;;;;;;;;;;;17.30;99.90;;;;;;5044053;28;19964;-71
2023/08/24 03:38:48;;;;;;;;;;;17.30;99.90;;;;;;5043547;28;19925;-71
2023/08/24 03:41:15;;;;;;;;;;;17.30;99.90;;;;;;5043758;28;19984;-71
2023/08/24 03:43:43;;;;;;;;;;;17.30;99.90;;;;;;5043719;28;20220;-69
2023/08/24 03:46:09;;;;;;;;;;;17.30;99.90;;;;;;5044001;28;19952;-70
2023/08/24 03:48:36;;;;;;;;;;;17.20;99.90;;;;;;5043665;28;19952;-71
2023/08/24 03:51:03;;;;;;;;;;;17.20;99.90;;;;;;5043918;28;20186;-71
2023/08/24 03:53:29;;;;;;;;;;;17.20;99.90;;;;;;5043843;28;19927;-71
2023/08/24 03:55:56;;;;;;;;;;;17.20;99.90;;;;;;5043452;28;19956;-70
2023/08/24 03:58:23;;;;;;;;;;;17.20;99.90;;;;;;5043546;28;19927;-71
2023/08/24 04:00:53;;;;;;;;;;;17.20;99.90;;;;;;5043748;28;19932;-71
2023/08/24 04:03:20;;;;;;;;;;;17.20;99.90;;;;;;5043679;28;19936;-71
2023/08/24 04:05:47;;;;;;;;;;;17.20;99.90;;;;;;5043204;28;20005;-71
2023/08/24 04:08:13;;;;;;;;;;;17.20;99.90;;;;;;5043282;28;19957;-71
2023/08/24 04:10:40;;;;;;;;;;;17.20;99.90;;;;;;5043302;28;19922;-70
2023/08/24 04:13:07;;;;;;;;;;;17.20;99.90;;;;;;5043538;28;19992;-71
2023/08/24 04:15:33;;;;;;;;;;;17.10;99.90;;;;;;5043273;28;19921;-71
2023/08/24 04:18:01;;;;;;;;;;;17.10;99.90;;;;;;5043318;28;19921;-71
2023/08/24 04:20:28;;;;;;;;;;;17.10;99.90;;;;;;5043435;28;19980;-71
2023/08/24 04:22:55;;;;;;;;;;;17.10;99.90;;;;;;5043256;28;19984;-71
2023/08/24 04:25:22;;;;;;;;;;;17.10;99.90;;;;;;5043588;28;19960;-71
2023/08/24 04:27:48;;;;;;;;;;;17.10;99.90;;;;;;5046491;28;19921;-71
2023/08/24 04:30:15;;;;;;;;;;;17.00;99.90;;;;;;5047572;28;19975;-71
2023/08/24 04:32:41;;;;;;;;;;;17.00;99.90;;;;;;5047118;28;19921;-71
2023/08/24 04:35:10;;;;;;;;;;;17.00;99.90;;;;;;5047168;28;19980;-71
2023/08/24 04:37:37;;;;;;;;;;;17.00;99.90;;;;;;5047380;28;19928;-71
2023/08/24 04:40:04;;;;;;;;;;;17.00;99.90;;;;;;5047147;28;19927;-71
2023/08/24 04:42:31;;;;;;;;;;;17.00;99.90;;;;;;5047379;28;19984;-71
2023/08/24 04:44:57;;;;;;;;;;;17.00;99.90;;;;;;5046954;28;19927;-71
2023/08/24 04:47:24;;;;;;;;;;;17.00;99.90;;;;;;5047029;28;19988;-71
2023/08/24 04:49:50;;;;;;;;;;;17.00;99.90;;;;;;5047529;28;19921;-72
2023/08/24 04:52:18;;;;;;;;;;;17.00;99.90;;;;;;5047070;28;19921;-72
2023/08/24 04:54:45;;;;;;;;;;;17.00;99.90;;;;;;5046878;28;20004;-71
2023/08/24 04:57:11;;;;;;;;;;;17.00;99.90;;;;;;5047182;28;19961;-71
2023/08/24 04:59:38;;;;;;;;;;;17.00;99.90;;;;;;5046856;28;19980;-72
2023/08/24 05:02:05;;;;;;;;;;;17.00;99.90;;;;;;5047000;28;19984;-72
2023/08/24 05:04:31;;;;;;;;;;;17.00;99.90;;;;;;5046654;28;20311;-72
2023/08/24 05:06:59;;;;;;;;;;;17.00;99.90;;;;;;5027291;28;19929;-71
2023/08/24 05:09:27;;;;;;;;;;;17.00;99.90;;;;;;5027221;28;19956;-71
2023/08/24 05:11:54;;;;;;;;;;;17.00;99.90;;;;;;5027252;28;19968;-72
2023/08/24 05:14:20;;;;;;;;;;;17.00;99.90;;;;;;5026958;28;20112;-70
2023/08/24 05:16:47;;;;;;;;;;;17.10;99.90;;;;;;5026799;28;19932;-70
2023/08/24 05:19:14;;;;;;;;;;;17.10;99.90;;;;;;5026332;28;19922;-70
2023/08/24 05:21:40;;;;;;;;;;;17.10;99.90;;;;;;5026453;28;19928;-67
2023/08/24 05:24:07;;;;;;;;;;;17.20;99.90;;;;;;5026914;28;19980;-70
2023/08/24 05:26:35;;;;;;;;;;;17.20;99.90;;;;;;5026722;28;19921;-70
2023/08/24 05:29:01;;;;;;;;;;;17.20;99.90;;;;;;5026434;28;19921;-70
2023/08/24 05:31:28;;;;;;;;;;;17.20;99.90;;;;;;5026657;28;19943;-70
2023/08/24 05:33:55;;;;;;;;;;;17.20;99.90;;;;;;5026251;28;19961;-70
2023/08/24 05:36:20;;;;;;;;;;;17.30;99.90;;;;;;5026360;28;19921;-70
2023/08/24 05:38:47;;;;;;;;;;;17.20;99.90;;;;;;5025355;28;19917;-72
2023/08/24 05:41:14;;;;;;;;;;;17.20;99.90;;;;;;5026395;28;19976;-69
2023/08/24 05:43:43;;;;;;;;;;;17.20;99.90;;;;;;5025978;28;19984;-70
2023/08/24 05:46:09;;;;;;;;;;;17.30;99.90;;;;;;5026284;28;19984;-70
2023/08/24 05:48:36;;;;;;;;;;;17.30;99.90;;;;;;5026153;28;19960;-70
2023/08/24 05:51:02;;;;;;;;;;;17.30;99.90;;;;;;5025885;28;19930;-70
2023/08/24 05:53:29;;;;;;;;;;;17.40;99.90;;;;;;5026158;28;19992;-70
2023/08/24 05:55:58;;;;;;;;;;;17.40;99.90;;;;;;5025857;28;20172;-70
2023/08/24 05:58:25;;;;;;;;;;;17.50;99.90;;;;;;5025888;28;19962;-70
2023/08/24 06:00:57;;;;;;;;;;;17.50;99.90;;;;;;5025992;28;19922;-70
2023/08/24 06:03:24;;;;;;;;;;;17.60;99.90;;;;;;5026102;28;19963;-70
2023/08/24 06:05:52;;;;;;;;;;;17.70;99.90;;;;;;5025230;28;20255;-70
2023/08/24 06:08:18;;;;;;;;;;;17.70;99.90;;;;;;5025816;28;19929;-70
2023/08/24 06:10:45;;;;;;;;;;;17.80;99.90;;;;;;5025950;28;19957;-70
2023/08/24 06:13:12;;;;;;;;;;;17.90;99.90;;;;;;5025729;28;19922;-69
2023/08/24 06:15:39;;;;;;;;;;;17.90;99.90;;;;;;5025051;28;19928;-70
2023/08/24 06:18:07;;;;;;;;;;;18.00;99.90;;;;;;5025572;28;19922;-70
2023/08/24 06:20:34;;;;;;;;;;;18.10;99.90;;;;;;5031040;28;19928;-70
2023/08/24 06:23:02;;;;;;;;;;;18.20;99.90;;;;;;5045540;28;19964;-70
2023/08/24 06:25:28;;;;;;;;;;;18.20;99.90;;;;;;5045393;28;19921;-70
2023/08/24 06:27:55;;;;;;;;;;;18.30;99.90;;;;;;5044912;28;20283;-70
2023/08/24 06:30:21;;;;;;;;;;;18.40;99.90;;;;;;5045297;28;19927;-70
2023/08/24 06:32:48;;;;;;;;;;;18.50;99.90;;;;;;5044970;28;20111;-70
2023/08/24 06:35:16;;;;;;;;;;;18.50;99.90;;;;;;5045065;28;19987;-72
2023/08/24 06:37:43;;;;;;;;;;;18.70;99.90;;;;;;5045305;28;19980;-70
2023/08/24 06:40:10;;;;;;;;;;;18.70;99.90;;;;;;5044710;28;19921;-71
2023/08/24 06:42:37;;;;;;;;;;;18.80;99.90;;;;;;5044935;28;19984;-70
2023/08/24 06:45:04;;;;;;;;;;;18.90;99.90;;;;;;5044691;28;20280;-70
2023/08/24 06:47:30;;;;;;;;;;;18.90;99.90;;;;;;5044756;28;19989;-68
2023/08/24 06:49:57;;;;;;;;;;;19.00;99.90;;;;;;5044340;28;20213;-70
2023/08/24 06:52:25;;;;;;;;;;;19.10;99.90;;;;;;5044922;28;19984;-70
2023/08/24 06:54:53;;;;;;;;;;;19.20;99.90;;;;;;5044696;28;19980;-70
2023/08/24 06:57:20;;;;;;;;;;;19.30;99.90;;;;;;5044589;28;19944;-70
2023/08/24 06:59:46;;;;;;;;;;;19.40;99.90;;;;;;5044679;28;19928;-70
2023/08/24 07:02:13;;;;;;;;;;;19.50;99.90;;;;;;5044328;28;20260;-70
2023/08/24 07:04:41;;;;;;;;;;;19.60;99.90;;;;;;5044511;28;19927;-70
2023/08/24 07:07:08;;;;;;;;;;;19.60;99.90;;;;;;5044609;28;19956;-70
2023/08/24 07:09:37;;;;;;;;;;;19.70;99.90;;;;;;5043784;28;19921;-70
2023/08/24 07:12:06;;;;;;;;;;;19.80;99.90;;;;;;5044168;28;19984;-72
2023/08/24 07:14:33;;;;;;;;;;;19.90;99.90;;;;;;5044122;28;19971;-70
2023/08/24 07:17:00;;;;;;;;;;;20.00;99.90;;;;;;5044426;28;19921;-70
2023/08/24 07:19:26;;;;;;;;;;;20.00;99.90;;;;;;5044112;28;19920;-70
2023/08/24 07:21:53;;;;;;;;;;;20.10;99.90;;;;;;5044065;28;19922;-70
2023/08/24 07:24:20;;;;;;;;;;;20.10;99.90;;;;;;5044368;28;19927;-70
2023/08/24 07:26:48;;;;;;;;;;;20.20;99.90;;;;;;5044334;28;19921;-70
2023/08/24 07:29:15;;;;;;;;;;;20.20;99.90;;;;;;5043974;28;19984;-70
2023/08/24 07:31:41;;;;;;;;;;;20.30;99.90;;;;;;5044211;28;19980;-71
2023/08/24 07:34:08;;;;;;;;;;;20.40;99.90;;;;;;5043896;28;19921;-70
2023/08/24 07:36:35;;;;;;;;;;;20.40;99.90;;;;;;5044032;28;19991;-68
2023/08/24 07:39:01;;;;;;;;;;;20.50;99.90;;;;;;5043584;28;19984;-68
2023/08/24 07:41:28;;;;;;;;;;;20.60;99.90;;;;;;5043750;28;20233;-67
2023/08/24 07:43:56;;;;;;;;;;;20.60;99.90;;;;;;5044018;28;19921;-68
2023/08/24 07:46:22;;;;;;;;;;;20.60;99.90;;;;;;5043965;28;19984;-68
2023/08/24 07:48:49;;;;;;;;;;;20.70;99.90;;;;;;5039829;28;19921;-68
2023/08/24 07:51:16;;;;;;;;;;;20.80;99.90;;;;;;5043405;28;19989;-68
2023/08/24 07:53:43;;;;;;;;;;;20.80;99.90;;;;;;5043734;28;19992;-68
2023/08/24 07:56:10;;;;;;;;;;;20.90;99.90;;;;;;5043412;28;19956;-68
2023/08/24 07:58:37;;;;;;;;;;;21.00;99.90;;;;;;5043126;28;19925;-68
2023/08/24 08:01:05;;;;;;;;;;;21.10;99.90;;;;;;5043129;28;19984;-68
2023/08/24 08:03:31;;;;;;;;;;;21.10;99.90;;;;;;5043367;28;20167;-68
2023/08/24 08:05:58;;;;;;;;;;;21.20;99.90;;;;;;5043207;28;20232;-68
2023/08/24 08:08:25;;;;;;;;;;;21.30;99.90;;;;;;5043346;28;19928;-68
2023/08/24 08:10:58;;;;;;;;;;;21.50;99.90;;;;;;5043527;28;19980;-68
2023/08/24 08:13:24;;;;;;;;;;;21.60;99.90;;;;;;5043362;28;19966;-68
2023/08/24 08:15:51;;;;;;;;;;;21.60;99.90;;;;;;5043616;28;19976;-68
2023/08/24 08:18:19;;;;;;;;;;;21.80;99.90;;;;;;5043271;28;19957;-68
2023/08/24 08:20:46;;;;;;;;;;;21.90;99.90;;;;;;5043444;28;19967;-68
2023/08/24 08:23:12;;;;;;;;;;;22.00;99.90;;;;;;5043487;28;20136;-68
2023/08/24 08:25:42;;;;;;;;;;;22.20;99.90;;;;;;5043299;28;19921;-68
2023/08/24 08:28:08;;;;;;;;;;;22.30;99.90;;;;;;5042793;28;19925;-68
2023/08/24 08:30:35;;;;;;;;;;;22.40;99.90;;;;;;5043272;28;19984;-67
2023/08/24 08:33:02;;;;;;;;;;;22.60;99.90;;;;;;5043334;28;19952;-68
2023/08/24 08:35:30;;;;;;;;;;;22.60;99.90;;;;;;5043200;28;19928;-68
2023/08/24 08:37:56;;;;;;;;;;;22.80;99.90;;;;;;5042283;28;19963;-69
2023/08/24 08:40:28;;;;;;;;;;;22.90;99.90;;;;;;5042117;28;20112;-68
2023/08/24 08:42:56;;;;;;;;;;;23.00;99.90;;;;;;5042980;28;19925;-68
2023/08/24 08:45:25;;;;;;;;;;;23.20;99.90;;;;;;5042700;28;19953;-68
2023/08/24 08:47:52;;;;;;;;;;;23.30;99.90;;;;;;5042793;28;19996;-68
2023/08/24 08:50:18;;;;;;;;;;;23.50;99.90;;;;;;5042788;28;20252;-68
2023/08/24 08:52:46;;;;;;;;;;;23.60;99.90;;;;;;5043187;28;19988;-68
2023/08/24 08:55:15;;;;;;;;;;;23.80;99.90;;;;;;5043152;28;19956;-68
2023/08/24 08:57:42;;;;;;;;;;;23.90;99.90;;;;;;5042539;28;20008;-68
2023/08/24 09:00:12;;;;;;;;;;;24.00;99.90;;;;;;5043065;28;19984;-68
2023/08/24 09:02:40;;;;;;;;;;;24.10;99.90;;;;;;5043019;28;19921;-68
2023/08/24 09:05:07;;;;;;;;;;;24.10;99.90;;;;;;5042818;28;19921;-68
2023/08/24 09:07:35;;;;;;;;;;;24.10;99.90;;;;;;5042761;28;19963;-68
2023/08/24 09:10:03;;;;;;;;;;;24.10;99.90;;;;;;5042864;28;19963;-69
2023/08/24 09:12:31;;;;;;;;;;;24.20;99.90;;;;;;5043820;28;20001;-69
2023/08/24 09:14:58;;;;;;;;;;;24.30;99.90;;;;;;5046695;28;19984;-69
2023/08/24 09:17:25;;;;;;;;;;;24.30;99.90;;;;;;5046300;28;20276;-68
2023/08/24 09:19:58;;;;;;;;;;;24.40;99.90;;;;;;5046049;28;19984;-69
2023/08/24 09:22:25;;;;;;;;;;;24.50;99.90;;;;;;5046512;28;19963;-67
2023/08/24 09:24:51;;;;;;;;;;;24.60;99.90;;;;;;5046419;28;20000;-69
2023/08/24 09:27:20;;;;;;;;;;;24.70;99.90;;;;;;5046344;28;19959;-69
2023/08/24 09:29:51;;;;;;;;;;;24.80;99.90;;;;;;5046443;28;19921;-69
2023/08/24 09:32:23;;;;;;;;;;;24.90;99.90;;;;;;5046319;28;20140;-69
2023/08/24 09:34:50;;;;;;;;;;;25.00;99.90;;;;;;5045950;28;19985;-69
2023/08/24 09:37:16;;;;;;;;;;;25.00;99.90;;;;;;5046116;28;20112;-69
2023/08/24 09:39:43;;;;;;;;;;;25.10;99.90;;;;;;5046170;28;19927;-68
2023/08/24 09:42:09;;;;;;;;;;;25.10;99.90;;;;;;5046117;28;19921;-69
2023/08/24 09:44:37;;;;;;;;;;;25.20;99.90;;;;;;5045840;28;19921;-69
2023/08/24 09:47:09;;;;;;;;;;;25.40;99.90;;;;;;5045961;28;19964;-69
2023/08/24 09:49:36;;;;;;;;;;;25.50;99.90;;;;;;5045875;28;20162;-68
2023/08/24 09:52:03;;;;;;;;;;;25.60;99.90;;;;;;5046017;28;20156;-69
2023/08/24 09:54:32;;;;;;;;;;;25.60;99.90;;;;;;5045921;28;19956;-68
2023/08/24 09:56:59;;;;;;;;;;;25.70;99.90;;;;;;5045867;28;19953;-69
2023/08/24 09:59:27;;;;;;;;;;;25.80;99.90;;;;;;5045668;28;19921;-69
2023/08/24 10:01:56;;;;;;;;;;;26.00;99.90;;;;;;5045840;28;19927;-70
2023/08/24 10:04:24;;;;;;;;;;;26.10;99.90;;;;;;5045532;28;19967;-70
2023/08/24 10:06:53;;;;;;;;;;;26.10;99.90;;;;;;5045351;28;19967;-69
2023/08/24 10:09:23;;;;;;;;;;;26.20;99.90;;;;;;5045473;28;19921;-69
2023/08/24 10:11:52;;;;;;;;;;;26.30;99.90;;;;;;5045600;28;19952;-69
2023/08/24 10:14:21;;;;;;;;;;;26.40;99.90;;;;;;5045586;28;19989;-69
2023/08/24 10:16:49;;;;;;;;;;;26.60;99.90;;;;;;5045285;28;19956;-72
2023/08/24 10:19:18;;;;;;;;;;;26.60;99.90;;;;;;5045289;28;19989;-69
2023/08/24 10:21:45;;;;;;;;;;;26.70;99.90;;;;;;5045463;28;19975;-69
2023/08/24 10:24:12;;;;;;;;;;;26.80;99.90;;;;;;5025055;28;19952;-69
2023/08/24 10:26:40;;;;;;;;;;;26.90;99.90;;;;;;5025483;28;19981;-68
2023/08/24 10:29:07;;;;;;;;;;;26.90;99.90;;;;;;5025487;28;19960;-69
2023/08/24 10:31:34;;;;;;;;;;;27.10;99.90;;;;;;5025273;28;19984;-69
2023/08/24 10:34:02;;;;;;;;;;;27.20;99.90;;;;;;5025054;28;19956;-69
2023/08/24 10:36:30;;;;;;;;;;;27.30;99.90;;;;;;5025322;28;19945;-68
2023/08/24 10:38:58;;;;;;;;;;;27.40;99.90;;;;;;5025153;28;19928;-69
2023/08/24 10:41:27;;;;;;;;;;;27.40;99.90;;;;;;5025202;28;19925;-69
2023/08/24 10:44:04;;;;;;;;;;;27.50;99.90;;;;;;5025185;28;19988;-69
2023/08/24 10:46:35;;;;;;;;;;;27.60;99.90;;;;;;5025266;28;19957;-69
2023/08/24 10:49:04;;;;;;;;;;;27.60;99.90;;;;;;5036216;28;19956;-69
2023/08/24 10:51:32;;;;;;;;;;;27.80;99.90;;;;;;5044644;28;20100;-70
2023/08/24 10:53:59;;;;;;;;;;;27.90;99.90;;;;;;5044626;28;19921;-69
2023/08/24 10:56:31;;;;;;;;;;;28.00;99.90;;;;;;5044243;28;19944;-69
2023/08/24 10:59:11;;;;;;;;;;;28.10;99.90;;;;;;5044502;28;19925;-69
2023/08/24 11:01:39;;;;;;;;;;;28.20;99.90;;;;;;5044746;28;19988;-69
2023/08/24 11:04:06;;;;;;;;;;;28.30;99.90;;;;;;5044654;28;19992;-69
2023/08/24 11:06:34;;;;;;;;;;;28.40;99.90;;;;;;5044104;28;19935;-69
2023/08/24 11:09:13;;;;;;;;;;;28.50;99.90;;;;;;5044199;28;19975;-70
2023/08/24 11:11:40;;;;;;;;;;;28.60;99.90;;;;;;5044531;28;19921;-69
2023/08/24 11:14:17;;;;;;;;;;;28.70;99.90;;;;;;5044254;28;19960;-69
2023/08/24 11:16:44;;;;;;;;;;;28.80;99.90;;;;;;5044395;28;20120;-70
2023/08/24 11:19:11;;;;;;;;;;;29.00;99.90;;;;;;5044291;28;19988;-69
2023/08/24 11:21:40;;;;;;;;;;;29.00;99.90;;;;;;5043930;28;20284;-69
2023/08/24 11:24:07;;;;;;;;;;;29.00;99.90;;;;;;5044273;28;19988;-69
2023/08/24 11:26:34;;;;;;;;;;;29.00;99.90;;;;;;5044298;28;19921;-69
2023/08/24 11:29:05;;;;;;;;;;;29.00;99.90;;;;;;5043721;28;19927;-69
2023/08/24 11:31:31;;;;;;;;;;;28.90;99.90;;;;;;5044157;28;19948;-70
2023/08/24 11:33:58;;;;;;;;;;;28.90;99.90;;;;;;5043648;28;19949;-68
2023/08/24 11:36:25;;;;;;;;;;;29.00;99.90;;;;;;5041947;28;20071;-69
2023/08/24 11:38:54;;;;;;;;;;;29.00;99.90;;;;;;5042396;28;19927;-69
2023/08/24 11:41:21;;;;;;;;;;;29.10;99.90;;;;;;5043691;28;19921;-70
2023/08/24 11:43:50;;;;;;;;;;;29.20;99.90;;;;;;5043651;28;19921;-70
2023/08/24 11:46:17;;;;;;;;;;;29.10;99.90;;;;;;5042543;28;19921;-69
2023/08/24 11:48:45;;;;;;;;;;;29.30;99.90;;;;;;5043303;28;19960;-70
2023/08/24 11:51:12;;;;;;;;;;;29.30;99.90;;;;;;5043619;28;19921;-70
2023/08/24 11:53:40;;;;;;;;;;;29.40;99.90;;;;;;5043796;28;19936;-69
2023/08/24 11:56:09;;;;;;;;;;;29.40;99.90;;;;;;5043325;28;19928;-70
2023/08/24 11:58:38;;;;;;;;;;;29.40;99.90;;;;;;5043543;28;19921;-69
2023/08/24 12:01:05;;;;;;;;;;;29.40;99.90;;;;;;5043367;28;19921;-69
2023/08/24 12:03:32;;;;;;;;;;;29.40;99.90;;;;;;5043666;28;19979;-69
2023/08/24 12:05:59;;;;;;;;;;;29.50;99.90;;;;;;5043437;28;19980;-69
2023/08/24 12:08:26;;;;;;;;;;;29.60;99.90;;;;;;5043370;28;19952;-71
2023/08/24 12:10:53;;;;;;;;;;;29.70;99.90;;;;;;5043470;28;19968;-70
2023/08/24 12:13:21;;;;;;;;;;;29.80;99.90;;;;;;5043293;28;20167;-69
2023/08/24 12:15:50;;;;;;;;;;;30.00;99.90;;;;;;5043377;28;19988;-69
2023/08/24 12:18:17;;;;;;;;;;;30.30;99.90;;;;;;5043254;28;19925;-69
2023/08/24 12:20:44;;;;;;;;;;;30.30;99.90;;;;;;5043115;28;19985;-70
2023/08/24 12:23:11;;;;;;;;;;;30.40;99.90;;;;;;5043562;28;20228;-69
2023/08/24 12:25:39;;;;;;;;;;;30.60;99.90;;;;;;5043366;28;20159;-69
2023/08/24 12:28:09;;;;;;;;;;;30.70;99.90;;;;;;5043256;28;19944;-69
2023/08/24 12:30:45;;;;;;;;;;;30.80;99.90;;;;;;5043240;28;19921;-69
2023/08/24 12:33:21;;;;;;;;;;;30.90;99.90;;;;;;5043450;28;19968;-69
2023/08/24 12:35:48;;;;;;;;;;;31.00;99.90;;;;;;5043088;28;19989;-70
2023/08/24 12:38:15;;;;;;;;;;;31.10;99.90;;;;;;5043123;28;19984;-69
2023/08/24 12:40:41;;;;;;;;;;;31.30;99.90;;;;;;5042940;28;20208;-70
2023/08/24 12:43:08;;;;;;;;;;;31.40;99.90;;;;;;5042408;28;19996;-68
2023/08/24 12:45:35;;;;;;;;;;;31.40;99.90;;;;;;5041864;28;20209;-70
2023/08/24 12:48:04;;;;;;;;;;;31.40;99.90;;;;;;5044155;28;20209;-69
2023/08/24 12:50:30;;;;;;;;;;;31.40;99.90;;;;;;5046959;28;19963;-69
2023/08/24 12:52:59;;;;;;;;;;;31.50;99.90;;;;;;5046984;28;19928;-70
2023/08/24 12:55:26;;;;;;;;;;;31.50;99.90;;;;;;5045823;28;19959;-69
2023/08/24 12:57:53;;;;;;;;;;;31.60;99.90;;;;;;5045579;28;19928;-70
2023/08/24 13:00:20;;;;;;;;;;;31.70;99.90;;;;;;5046864;28;19928;-70
2023/08/24 13:02:47;;;;;;;;;;;31.70;99.90;;;;;;5047073;28;19965;-70
2023/08/24 13:05:15;;;;;;;;;;;31.70;99.90;;;;;;5046395;28;19953;-70
2023/08/24 13:07:41;;;;;;;;;;;31.70;99.90;;;;;;5046638;28;19983;-70
2023/08/24 13:10:09;;;;;;;;;;;31.50;99.90;;;;;;5046577;28;20117;-70
2023/08/24 13:12:35;;;;;;;;;;;31.50;99.90;;;;;;5046696;28;19921;-70
2023/08/24 13:15:02;;;;;;;;;;;31.40;99.90;;;;;;5046437;28;19971;-70
2023/08/24 13:17:30;;;;;;;;;;;31.40;99.90;;;;;;5046366;28;19928;-70
2023/08/24 13:19:57;;;;;;;;;;;31.40;99.90;;;;;;5045950;28;19953;-72
2023/08/24 13:22:25;;;;;;;;;;;31.30;99.90;;;;;;5045147;28;19952;-71
2023/08/24 13:24:51;;;;;;;;;;;31.30;99.90;;;;;;5045841;28;20264;-69
2023/08/24 13:27:19;;;;;;;;;;;31.10;99.90;;;;;;5046405;28;19921;-69
2023/08/24 13:29:45;;;;;;;;;;;30.90;99.90;;;;;;5046431;28;19921;-72
2023/08/24 13:32:12;;;;;;;;;;;30.80;99.90;;;;;;5046448;28;20239;-70
2023/08/24 13:34:38;;;;;;;;;;;30.70;99.90;;;;;;5046326;28;19921;-69
2023/08/24 13:37:05;;;;;;;;;;;30.80;99.90;;;;;;5046111;28;19989;-70
2023/08/24 13:39:33;;;;;;;;;;;30.80;99.90;;;;;;5046099;28;19960;-70
2023/08/24 13:42:00;;;;;;;;;;;31.00;99.90;;;;;;5046116;28;19920;-70
2023/08/24 13:44:27;;;;;;;;;;;31.20;99.90;;;;;;5046264;28;19928;-70
2023/08/24 13:46:54;;;;;;;;;;;31.30;99.90;;;;;;5045901;28;19921;-68
2023/08/24 13:49:20;;;;;;;;;;;31.30;99.90;;;;;;5045893;28;19965;-71
2023/08/24 13:51:47;;;;;;;;;;;31.30;99.90;;;;;;5046123;28;19925;-70
2023/08/24 13:54:14;;;;;;;;;;;31.10;99.90;;;;;;5046047;28;19963;-70
2023/08/24 13:56:42;;;;;;;;;;;31.00;99.90;;;;;;5045918;28;19988;-69
2023/08/24 13:59:09;;;;;;;;;;;31.00;99.90;;;;;;5044717;28;19956;-71
2023/08/24 14:01:36;;;;;;;;;;;30.90;99.90;;;;;;5045631;28;20234;-70
2023/08/24 14:04:02;;;;;;;;;;;30.90;99.90;;;;;;5045770;28;19953;-68
2023/08/24 14:06:29;;;;;;;;;;;30.90;99.90;;;;;;5045214;28;20205;-69
2023/08/24 14:08:56;;;;;;;;;;;31.00;99.90;;;;;;5045625;28;19921;-69
2023/08/24 14:11:22;;;;;;;;;;;31.10;99.90;;;;;;5045513;28;19963;-71
2023/08/24 14:13:50;;;;;;;;;;;31.30;99.90;;;;;;5045372;28;20098;-70
2023/08/24 14:16:18;;;;;;;;;;;31.40;99.90;;;;;;5045579;28;19988;-70